Time;durP1;ratioP1;P1;durP2;ratioP2;P2;SDS_P1;SDS_P2;PMS_P1;PMS_P2;Temp;Humidity;BMP_temperature;BMP_pressure;BME280_temperature;BME280_humidity;BME280_pressure;Samples;Min_cycle;Max_cycle;Signal;HPM_P1;HPM_P2
2023/07/31 00:00:08;;;;;;;1.87;1.60;;;23.20;47.50;;;;;;5012196;28;20925;-68
2023/07/31 00:02:34;;;;;;;1.60;1.50;;;23.20;47.50;;;;;;5019640;28;20245;-68
2023/07/31 00:05:01;;;;;;;2.03;1.53;;;23.20;47.50;;;;;;5031565;28;20474;-68
2023/07/31 00:07:26;;;;;;;1.50;1.40;;;23.20;47.50;;;;;;5021109;28;20492;-68
2023/07/31 00:09:53;;;;;;;1.70;1.50;;;23.20;47.50;;;;;;5009761;28;21220;-68
2023/07/31 00:12:19;;;;;;;1.60;1.50;;;23.20;47.50;;;;;;5017632;28;20254;-68
2023/07/31 00:14:44;;;;;;;1.60;1.50;;;23.20;47.50;;;;;;5027043;28;20909;-68
2023/07/31 00:17:10;;;;;;;1.70;1.60;;;23.20;47.50;;;;;;5029508;28;20221;-68
2023/07/31 00:19:35;;;;;;;1.80;1.70;;;23.20;47.50;;;;;;5029066;28;20264;-68
2023/07/31 00:22:01;;;;;;;2.07;1.97;;;23.20;47.50;;;;;;5030356;28;20664;-68
2023/07/31 00:24:26;;;;;;;1.53;1.43;;;23.20;47.50;;;;;;5016184;28;20915;-67
2023/07/31 00:26:52;;;;;;;1.90;1.80;;;23.20;47.50;;;;;;5027262;28;20584;-68
2023/07/31 00:29:17;;;;;;;1.60;1.50;;;23.20;47.50;;;;;;5024837;28;20222;-68
2023/07/31 00:31:43;;;;;;;1.60;1.50;;;23.20;47.50;;;;;;5024780;28;20214;-68
2023/07/31 00:34:08;;;;;;;1.50;1.40;;;23.20;47.50;;;;;;5017422;28;20222;-68
2023/07/31 00:36:34;;;;;;;1.67;1.57;;;23.20;47.50;;;;;;5020435;28;20221;-68
2023/07/31 00:38:59;;;;;;;2.23;2.13;;;23.20;47.50;;;;;;5028477;28;20625;-68
2023/07/31 00:41:25;;;;;;;1.70;1.60;;;23.20;47.50;;;;;;5011299;28;20226;-68
2023/07/31 00:43:50;;;;;;;1.40;1.30;;;23.20;47.60;;;;;;5020748;28;20236;-67
2023/07/31 00:46:16;;;;;;;1.63;1.53;;;23.10;48.20;;;;;;5038442;28;20226;-68
2023/07/31 00:48:42;;;;;;;1.90;1.80;;;23.20;47.50;;;;;;5029586;28;20229;-67
2023/07/31 00:51:08;;;;;;;1.63;1.53;;;23.20;47.50;;;;;;5029306;28;20305;-68
2023/07/31 00:53:35;;;;;;;1.60;1.50;;;23.20;47.50;;;;;;5032101;28;20475;-68
2023/07/31 00:56:00;;;;;;;1.70;1.60;;;23.20;47.50;;;;;;5025420;28;20469;-67
2023/07/31 00:58:26;;;;;;;2.10;2.00;;;23.20;47.50;;;;;;5023871;28;21121;-68
2023/07/31 01:00:51;;;;;;;1.50;1.40;;;23.20;47.50;;;;;;5034776;28;20229;-68
2023/07/31 01:03:17;;;;;;;1.60;1.50;;;23.20;47.50;;;;;;5031086;28;20237;-68
2023/07/31 01:05:53;;;;;;;1.57;1.47;;;23.10;47.40;;;;;;5022759;28;20214;-67
2023/07/31 01:08:30;;;;;;;2.03;1.93;;;23.10;47.40;;;;;;5023857;28;20550;-68
2023/07/31 01:11:02;;;;;;;3.03;1.70;;;23.10;47.50;;;;;;5020884;28;21217;-68
2023/07/31 01:13:28;;;;;;;1.47;1.37;;;23.10;47.40;;;;;;5029383;28;20808;-67
2023/07/31 01:15:54;;;;;;;1.70;1.60;;;23.10;47.40;;;;;;5024171;28;20948;-67
2023/07/31 01:18:19;;;;;;;2.53;1.70;;;23.20;47.50;;;;;;5029609;28;20475;-67
2023/07/31 01:20:54;;;;;;;4.93;1.87;;;23.10;47.40;;;;;;5031604;28;20233;-67
2023/07/31 01:24:03;;;;;;;3.30;1.83;;;23.10;47.40;;;;;;5029284;28;20221;-67
2023/07/31 01:26:38;;;;;;;1.80;1.70;;;23.10;47.40;;;;;;5030772;28;20509;-66
2023/07/31 01:29:09;;;;;;;4.37;1.60;;;23.10;47.40;;;;;;5033705;28;20466;-66
2023/07/31 01:31:37;;;;;;;1.80;1.70;;;23.10;47.40;;;;;;5029111;28;20559;-66
2023/07/31 01:34:03;;;;;;;1.67;1.57;;;23.10;47.40;;;;;;5032622;28;20567;-67
2023/07/31 01:36:31;;;;;;;1.83;1.70;;;23.10;47.40;;;;;;5028070;28;20557;-66
2023/07/31 01:39:01;;;;;;;2.00;1.83;;;23.10;47.40;;;;;;5027944;28;20473;-66
2023/07/31 01:41:27;;;;;;;1.60;1.50;;;23.10;47.30;;;;;;5032534;28;20485;-66
2023/07/31 01:43:52;;;;;;;2.17;1.97;;;23.20;47.50;;;;;;5021416;28;20485;-67
2023/07/31 01:46:18;;;;;;;1.93;1.73;;;23.10;47.40;;;;;;5031879;28;20259;-66
2023/07/31 01:48:43;;;;;;;2.53;2.33;;;23.10;46.70;;;;;;5025094;28;20241;-67
2023/07/31 01:51:09;;;;;;;2.30;1.63;;;23.10;47.40;;;;;;5031486;28;20337;-67
2023/07/31 01:53:34;;;;;;;1.43;1.33;;;23.10;47.40;;;;;;5023093;28;20234;-67
2023/07/31 01:56:00;;;;;;;1.90;1.80;;;23.10;47.40;;;;;;5029542;28;20337;-67
2023/07/31 01:58:26;;;;;;;1.70;1.60;;;23.10;47.40;;;;;;5018893;28;20579;-67
2023/07/31 02:00:51;;;;;;;2.73;2.10;;;23.10;47.40;;;;;;5022270;28;20272;-67
2023/07/31 02:03:17;;;;;;;1.90;1.80;;;23.10;47.40;;;;;;5028554;28;20223;-67
2023/07/31 02:05:49;;;;;;;1.60;1.50;;;23.10;47.40;;;;;;5026230;28;20222;-67
2023/07/31 02:08:16;;;;;;;2.20;2.07;;;23.10;47.30;;;;;;5019623;28;20272;-66
2023/07/31 02:10:41;;;;;;;1.73;1.63;;;23.10;47.40;;;;;;5030489;28;20454;-67
2023/07/31 02:13:07;;;;;;;1.80;1.60;;;23.10;47.40;;;;;;5039333;28;20491;-67
2023/07/31 02:15:34;;;;;;;2.20;2.10;;;23.10;47.40;;;;;;5034431;28;20218;-67
2023/07/31 02:17:59;;;;;;;1.73;1.63;;;23.10;47.40;;;;;;5029132;28;20322;-66
2023/07/31 02:20:25;;;;;;;1.97;1.77;;;23.10;47.40;;;;;;5032088;28;20464;-67
2023/07/31 02:22:51;;;;;;;1.80;1.70;;;23.10;47.40;;;;;;5023331;28;20317;-67
2023/07/31 02:25:16;;;;;;;1.80;1.70;;;23.10;47.40;;;;;;5020727;28;20219;-67
2023/07/31 02:27:42;;;;;;;1.93;1.80;;;23.10;47.40;;;;;;5012361;28;20226;-67
2023/07/31 02:30:08;;;;;;;1.70;1.60;;;23.10;47.40;;;;;;5023567;28;20226;-67
2023/07/31 02:32:33;;;;;;;1.70;1.60;;;23.10;47.30;;;;;;5011288;28;20223;-67
2023/07/31 02:34:59;;;;;;;1.90;1.70;;;23.10;47.40;;;;;;5028533;28;20486;-67
2023/07/31 02:37:25;;;;;;;3.03;1.70;;;23.10;47.40;;;;;;5018764;28;20249;-67
2023/07/31 02:39:51;;;;;;;1.90;1.67;;;23.10;47.40;;;;;;5012955;28;20306;-67
2023/07/31 02:42:16;;;;;;;1.63;1.53;;;23.10;47.40;;;;;;5023161;28;20452;-67
2023/07/31 02:44:42;;;;;;;2.50;1.80;;;23.10;47.50;;;;;;5028586;28;20264;-67
2023/07/31 02:47:07;;;;;;;1.97;1.77;;;23.10;47.40;;;;;;5030908;28;20381;-67
2023/07/31 02:49:33;;;;;;;1.80;1.57;;;23.10;47.40;;;;;;5020524;28;20215;-67
2023/07/31 02:51:58;;;;;;;2.70;1.83;;;23.10;47.40;;;;;;5020281;28;20223;-67
2023/07/31 02:54:24;;;;;;;1.63;1.53;;;23.10;47.40;;;;;;5020965;28;20237;-67
2023/07/31 02:56:49;;;;;;;2.10;2.00;;;23.10;47.40;;;;;;5030147;28;20275;-67
2023/07/31 02:59:15;;;;;;;1.77;1.67;;;23.10;47.40;;;;;;5030166;28;20222;-67
2023/07/31 03:01:41;;;;;;;2.47;1.90;;;23.10;47.40;;;;;;5031576;28;20654;-67
2023/07/31 03:04:07;;;;;;;2.23;1.80;;;23.10;47.40;;;;;;5036503;28;21172;-67
2023/07/31 03:06:32;;;;;;;1.67;1.57;;;23.10;47.40;;;;;;5033198;28;20223;-67
2023/07/31 03:08:58;;;;;;;1.80;1.70;;;23.10;47.40;;;;;;5030868;28;20456;-66
2023/07/31 03:11:23;;;;;;;1.80;1.70;;;23.10;47.40;;;;;;5027020;28;21565;-67
2023/07/31 03:13:49;;;;;;;1.70;1.60;;;23.10;47.40;;;;;;5023607;28;20237;-67
2023/07/31 03:16:14;;;;;;;2.40;1.70;;;23.10;47.40;;;;;;5021935;28;20223;-67
2023/07/31 03:18:40;;;;;;;2.20;1.90;;;23.10;47.40;;;;;;5008324;28;20231;-67
2023/07/31 03:21:05;;;;;;;2.70;2.23;;;23.10;47.40;;;;;;5018404;28;20219;-67
2023/07/31 03:23:31;;;;;;;1.93;1.60;;;23.10;47.40;;;;;;5017829;28;20709;-67
2023/07/31 03:25:58;;;;;;;2.27;2.07;;;23.10;47.40;;;;;;5026665;28;20217;-67
2023/07/31 03:28:24;;;;;;;2.03;1.60;;;23.10;47.40;;;;;;5022886;28;20324;-67
2023/07/31 03:30:50;;;;;;;1.80;1.70;;;23.10;47.40;;;;;;5028656;28;20460;-67
2023/07/31 03:33:16;;;;;;;2.20;2.00;;;23.10;47.40;;;;;;5024984;28;20242;-67
2023/07/31 03:35:41;;;;;;;2.30;2.10;;;23.10;47.40;;;;;;5026196;28;20518;-67
2023/07/31 03:38:07;;;;;;;2.60;1.90;;;23.10;47.50;;;;;;5032391;28;20218;-67
2023/07/31 03:40:32;;;;;;;1.87;1.70;;;23.10;47.40;;;;;;5023287;28;20296;-67
2023/07/31 03:42:58;;;;;;;2.10;1.90;;;23.10;47.40;;;;;;5026159;28;20222;-67
2023/07/31 03:45:23;;;;;;;2.50;2.10;;;23.10;47.40;;;;;;5012251;28;20223;-67
2023/07/31 03:47:49;;;;;;;2.00;1.80;;;23.10;47.40;;;;;;5017340;28;20621;-67
2023/07/31 03:50:14;;;;;;;2.33;2.10;;;23.10;47.30;;;;;;5030293;28;20274;-67
2023/07/31 03:52:41;;;;;;;2.17;1.70;;;23.10;47.40;;;;;;5025924;28;20232;-67
2023/07/31 03:55:07;;;;;;;1.90;1.80;;;23.10;47.40;;;;;;5017561;28;20236;-67
2023/07/31 03:57:32;;;;;;;2.77;1.90;;;23.10;47.50;;;;;;5028456;28;20472;-67
2023/07/31 03:59:58;;;;;;;1.87;1.77;;;23.10;47.40;;;;;;5025262;28;20218;-66
2023/07/31 04:02:24;;;;;;;2.43;2.23;;;23.10;47.40;;;;;;5020383;28;20218;-66
2023/07/31 04:04:49;;;;;;;1.90;1.80;;;23.10;47.40;;;;;;5019074;28;20233;-66
2023/07/31 04:07:15;;;;;;;2.73;2.07;;;23.10;47.40;;;;;;5017637;28;20249;-66
2023/07/31 04:09:40;;;;;;;1.60;1.50;;;23.10;47.40;;;;;;5026028;28;20249;-67
2023/07/31 04:12:06;;;;;;;2.00;1.90;;;23.10;47.30;;;;;;5024934;28;20218;-67
2023/07/31 04:14:32;;;;;;;2.37;2.17;;;23.10;47.40;;;;;;5021861;28;20316;-67
2023/07/31 04:16:57;;;;;;;2.20;2.10;;;23.10;47.40;;;;;;5027854;28;20215;-66
2023/07/31 04:19:23;;;;;;;2.80;2.20;;;23.10;47.40;;;;;;5016889;28;20305;-66
2023/07/31 04:21:48;;;;;;;2.33;2.13;;;23.10;47.40;;;;;;5016910;28;20230;-67
2023/07/31 04:24:14;;;;;;;2.10;1.90;;;23.10;47.40;;;;;;5017542;28;20365;-66
2023/07/31 04:26:40;;;;;;;2.47;1.90;;;23.10;47.40;;;;;;5007698;28;20306;-67
2023/07/31 04:29:05;;;;;;;2.40;2.13;;;23.10;47.40;;;;;;5016560;28;20230;-66
2023/07/31 04:31:31;;;;;;;2.20;2.00;;;23.10;47.40;;;;;;5019224;28;21372;-66
2023/07/31 04:33:56;;;;;;;2.23;1.63;;;23.10;47.40;;;;;;5017326;28;20297;-66
2023/07/31 04:36:22;;;;;;;2.00;1.80;;;23.10;47.40;;;;;;5013625;28;20234;-67
2023/07/31 04:38:47;;;;;;;2.20;2.00;;;23.10;47.40;;;;;;5012389;28;20806;-67
2023/07/31 04:41:12;;;;;;;2.20;2.00;;;23.10;47.40;;;;;;5019043;28;20244;-67
2023/07/31 04:43:39;;;;;;;2.10;1.90;;;23.10;47.40;;;;;;5028182;28;20229;-66
2023/07/31 04:46:05;;;;;;;2.10;2.00;;;23.10;47.40;;;;;;5026263;28;20225;-66
2023/07/31 04:48:31;;;;;;;2.50;1.80;;;23.10;47.40;;;;;;5025116;28;20455;-67
2023/07/31 04:50:56;;;;;;;2.00;1.80;;;23.10;47.40;;;;;;5024649;28;20656;-67
2023/07/31 04:53:22;;;;;;;2.30;2.03;;;23.10;47.40;;;;;;5011274;28;20241;-66
2023/07/31 04:55:47;;;;;;;1.90;1.70;;;23.10;47.40;;;;;;5023353;28;20218;-67
2023/07/31 04:58:13;;;;;;;2.10;2.00;;;23.10;47.40;;;;;;5023641;28;20336;-66
2023/07/31 05:00:38;;;;;;;2.10;1.93;;;23.10;47.40;;;;;;5025825;28;20226;-66
2023/07/31 05:03:04;;;;;;;1.93;1.83;;;23.10;47.40;;;;;;5017849;28;20274;-66
2023/07/31 05:05:30;;;;;;;2.07;1.97;;;23.10;47.40;;;;;;5016044;28;20593;-67
2023/07/31 05:07:55;;;;;;;2.43;2.23;;;23.10;47.40;;;;;;5027650;28;20471;-66
2023/07/31 05:10:21;;;;;;;5.17;1.87;;;23.20;47.50;;;;;;5029352;28;20677;-67
2023/07/31 05:12:46;;;;;;;2.03;1.93;;;23.20;47.50;;;;;;5026295;28;20214;-65
2023/07/31 05:15:12;;;;;;;2.20;2.00;;;23.10;47.40;;;;;;5017161;28;20855;-66
2023/07/31 05:17:37;;;;;;;4.70;1.97;;;23.20;47.50;;;;;;5027516;28;20301;-66
2023/07/31 05:20:03;;;;;;;1.90;1.80;;;23.10;47.40;;;;;;5029405;28;20684;-66
2023/07/31 05:22:29;;;;;;;3.30;2.37;;;23.20;47.50;;;;;;5019617;28;20850;-66
2023/07/31 05:24:54;;;;;;;2.23;2.03;;;23.10;47.40;;;;;;5020906;28;20773;-66
2023/07/31 05:27:20;;;;;;;2.50;1.90;;;23.20;47.50;;;;;;5035431;28;20222;-66
2023/07/31 05:29:45;;;;;;;2.80;2.30;;;23.20;47.50;;;;;;5035636;28;20322;-66
2023/07/31 05:32:11;;;;;;;1.80;1.70;;;23.20;47.50;;;;;;5040088;28;20686;-66
2023/07/31 05:34:37;;;;;;;2.20;1.97;;;23.20;47.60;;;;;;5036262;28;20371;-66
2023/07/31 05:37:03;;;;;;;2.37;2.13;;;23.20;47.50;;;;;;5033525;28;20255;-66
2023/07/31 05:39:28;;;;;;;3.33;2.37;;;23.20;47.50;;;;;;5032198;28;20258;-66
2023/07/31 05:41:54;;;;;;;3.30;2.10;;;23.20;47.50;;;;;;5034053;28;20268;-66
2023/07/31 05:44:19;;;;;;;2.10;1.70;;;23.20;47.50;;;;;;5035898;28;20629;-66
2023/07/31 05:46:45;;;;;;;2.60;2.10;;;23.20;47.50;;;;;;5032739;28;20222;-66
2023/07/31 05:49:10;;;;;;;1.93;1.77;;;23.20;47.50;;;;;;5034969;28;20299;-66
2023/07/31 05:51:36;;;;;;;2.17;1.80;;;23.20;47.50;;;;;;5031459;28;20219;-66
2023/07/31 05:54:01;;;;;;;4.80;2.10;;;23.20;47.50;;;;;;5034832;28;20243;-66
2023/07/31 05:56:27;;;;;;;2.13;2.03;;;23.20;47.50;;;;;;5035217;28;20594;-66
2023/07/31 05:58:52;;;;;;;2.00;1.90;;;23.20;47.50;;;;;;5032393;28;20254;-66
2023/07/31 06:01:18;;;;;;;2.13;2.03;;;23.20;47.50;;;;;;5029491;28;20620;-66
2023/07/31 06:03:44;;;;;;;2.97;2.40;;;23.20;47.50;;;;;;5024877;28;20866;-66
2023/07/31 06:06:09;;;;;;;2.87;2.40;;;23.20;47.50;;;;;;5035144;28;20309;-66
2023/07/31 06:08:35;;;;;;;2.20;2.00;;;23.20;47.50;;;;;;5033698;28;20226;-66
2023/07/31 06:11:00;;;;;;;3.07;1.60;;;23.20;47.50;;;;;;5032564;28;20227;-66
2023/07/31 06:13:26;;;;;;;2.00;1.90;;;23.20;47.50;;;;;;5036060;28;20233;-67
2023/07/31 06:15:51;;;;;;;4.00;1.80;;;23.10;47.40;;;;;;5034721;28;20231;-66
2023/07/31 06:18:17;;;;;;;2.87;2.00;;;23.20;47.60;;;;;;5039053;28;20227;-66
2023/07/31 06:20:43;;;;;;;2.00;1.90;;;23.20;47.50;;;;;;5026966;28;20276;-66
2023/07/31 06:23:08;;;;;;;2.00;1.90;;;23.20;47.50;;;;;;5034511;28;20321;-66
2023/07/31 06:25:34;;;;;;;2.93;2.00;;;23.10;47.40;;;;;;5028060;28;20555;-66
2023/07/31 06:27:59;;;;;;;2.20;2.00;;;23.20;47.50;;;;;;5035148;28;20751;-66
2023/07/31 06:30:25;;;;;;;2.00;1.90;;;23.20;47.50;;;;;;5026176;28;20642;-66
2023/07/31 06:32:50;;;;;;;2.13;2.03;;;23.20;47.50;;;;;;5035938;28;20268;-66
2023/07/31 06:35:16;;;;;;;2.63;2.00;;;23.20;47.50;;;;;;5016383;28;20797;-66
2023/07/31 06:37:43;;;;;;;2.10;1.90;;;23.10;47.40;;;;;;5018449;28;20226;-66
2023/07/31 06:40:09;;;;;;;2.00;1.90;;;23.20;47.50;;;;;;5018615;28;20223;-66
2023/07/31 06:42:35;;;;;;;2.90;2.00;;;23.10;47.40;;;;;;5017548;28;20492;-67
2023/07/31 06:45:02;;;;;;;1.90;1.80;;;23.10;47.40;;;;;;5014070;28;20548;-66
2023/07/31 06:47:27;;;;;;;2.10;2.00;;;23.20;47.50;;;;;;5023727;28;20880;-66
2023/07/31 06:49:53;;;;;;;3.40;2.40;;;23.10;47.40;;;;;;5025348;28;20551;-66
2023/07/31 06:52:19;;;;;;;2.17;1.97;;;23.10;47.40;;;;;;5038414;28;20222;-66
2023/07/31 06:54:44;;;;;;;2.00;1.90;;;23.10;47.40;;;;;;5032418;28;20227;-67
2023/07/31 06:57:10;;;;;;;2.07;1.97;;;23.10;47.40;;;;;;5035571;28;20597;-66
2023/07/31 06:59:35;;;;;;;2.07;1.97;;;23.10;47.40;;;;;;5032653;28;20907;-66
2023/07/31 07:02:01;;;;;;;1.80;1.70;;;23.10;47.40;;;;;;5031495;28;20959;-66
2023/07/31 07:04:26;;;;;;;2.13;2.03;;;23.10;47.40;;;;;;5033156;28;20484;-66
2023/07/31 07:06:52;;;;;;;2.50;2.30;;;23.10;47.40;;;;;;5020839;28;21051;-66
2023/07/31 07:09:17;;;;;;;2.30;2.20;;;23.10;47.40;;;;;;5035557;28;20589;-66
2023/07/31 07:11:43;;;;;;;1.90;1.80;;;23.10;47.40;;;;;;5025853;28;20218;-65
2023/07/31 07:14:08;;;;;;;2.00;1.80;;;23.10;47.40;;;;;;5032630;28;20234;-66
2023/07/31 07:16:34;;;;;;;2.20;2.10;;;23.10;47.40;;;;;;5037316;28;20308;-66
2023/07/31 07:18:59;;;;;;;2.00;1.90;;;23.20;47.50;;;;;;5025901;28;20259;-66
2023/07/31 07:21:25;;;;;;;1.80;1.70;;;23.10;47.40;;;;;;5031974;28;20228;-66
2023/07/31 07:23:51;;;;;;;2.00;1.90;;;23.10;47.40;;;;;;5030326;28;20308;-65
2023/07/31 07:26:16;;;;;;;1.77;1.67;;;23.10;47.40;;;;;;5033806;28;20229;-66
2023/07/31 07:28:41;;;;;;;3.00;1.90;;;23.10;47.40;;;;;;5020493;28;20309;-66
2023/07/31 07:31:07;;;;;;;1.80;1.70;;;23.10;47.40;;;;;;5023340;28;20675;-66
2023/07/31 07:33:32;;;;;;;2.00;1.90;;;23.10;47.40;;;;;;5033368;28;20242;-66
2023/07/31 07:36:02;;;;;;;3.50;1.80;;;23.10;47.40;;;;;;5030766;28;20271;-66
2023/07/31 07:38:27;;;;;;;2.13;2.03;;;23.10;47.40;;;;;;5035176;28;20310;-66
2023/07/31 07:40:53;;;;;;;2.00;1.73;;;23.10;47.40;;;;;;5033383;28;20868;-66
2023/07/31 07:43:19;;;;;;;2.03;1.93;;;23.10;47.40;;;;;;5034393;28;20227;-66
2023/07/31 07:45:44;;;;;;;3.07;1.97;;;23.10;47.40;;;;;;5027417;28;20228;-66
2023/07/31 07:48:10;;;;;;;2.47;2.27;;;23.10;47.40;;;;;;5036791;28;20213;-66
2023/07/31 07:50:36;;;;;;;2.67;1.60;;;23.10;47.40;;;;;;5021318;28;20262;-66
2023/07/31 07:53:02;;;;;;;1.90;1.77;;;23.10;47.40;;;;;;5023736;28;20284;-65
2023/07/31 07:55:27;;;;;;;2.07;1.97;;;23.10;47.40;;;;;;5030258;28;20455;-66
2023/07/31 07:57:53;;;;;;;2.00;1.90;;;23.10;47.40;;;;;;5026250;28;20226;-66
2023/07/31 08:00:19;;;;;;;2.10;1.90;;;23.10;47.40;;;;;;5024429;28;20226;-66
2023/07/31 08:02:44;;;;;;;2.00;1.80;;;23.10;47.40;;;;;;5020873;28;20230;-66
2023/07/31 08:05:10;;;;;;;2.57;2.37;;;23.10;47.40;;;;;;5026058;28;20257;-66
2023/07/31 08:07:35;;;;;;;1.90;1.80;;;23.10;47.40;;;;;;5022397;28;20218;-66
2023/07/31 08:10:01;;;;;;;1.53;1.43;;;23.20;47.20;;;;;;5016273;28;20701;-66
2023/07/31 08:12:26;;;;;;;2.40;1.80;;;23.20;47.20;;;;;;5018216;28;20313;-66
2023/07/31 08:14:52;;;;;;;1.90;1.80;;;23.20;47.10;;;;;;5031884;28;20776;-66
2023/07/31 08:17:17;;;;;;;2.17;1.97;;;23.20;46.90;;;;;;5032100;28;20265;-66
2023/07/31 08:19:43;;;;;;;5.20;1.60;;;23.20;46.90;;;;;;5021080;28;20217;-66
2023/07/31 08:22:09;;;;;;;1.77;1.67;;;23.20;46.80;;;;;;5026095;28;20214;-66
2023/07/31 08:24:35;;;;;;;1.70;1.60;;;23.20;46.70;;;;;;5026289;28;20470;-66
2023/07/31 08:27:00;;;;;;;2.13;1.60;;;23.20;46.80;;;;;;5025548;28;20226;-66
2023/07/31 08:29:26;;;;;;;2.37;1.70;;;23.20;46.70;;;;;;5022226;28;20233;-66
2023/07/31 08:31:51;;;;;;;2.80;1.60;;;23.20;46.70;;;;;;5024224;28;20238;-66
2023/07/31 08:34:17;;;;;;;1.60;1.50;;;23.20;46.60;;;;;;5021179;28;20683;-66
2023/07/31 08:36:42;;;;;;;1.70;1.60;;;23.20;46.60;;;;;;5024053;28;20309;-66
2023/07/31 08:39:08;;;;;;;1.50;1.40;;;23.20;46.70;;;;;;5026018;28;20267;-66
2023/07/31 08:41:39;;;;;;;1.50;1.40;;;23.20;46.80;;;;;;5027535;28;20218;-66
2023/07/31 08:44:05;;;;;;;1.50;1.40;;;23.20;46.80;;;;;;5034960;28;20237;-66
2023/07/31 08:46:32;;;;;;;2.03;1.50;;;23.20;46.90;;;;;;5034176;28;20444;-66
2023/07/31 08:48:59;;;;;;;1.73;1.63;;;23.20;46.90;;;;;;5026168;28;20466;-66
2023/07/31 08:51:24;;;;;;;1.60;1.50;;;23.20;46.80;;;;;;5028186;28;20470;-66
2023/07/31 08:53:50;;;;;;;7.23;2.30;;;23.20;46.80;;;;;;5035465;28;20470;-66
2023/07/31 08:56:17;;;;;;;1.67;1.57;;;23.20;46.90;;;;;;5032276;28;20321;-66
2023/07/31 08:58:43;;;;;;;1.60;1.50;;;23.20;46.80;;;;;;5029638;28;20222;-66
2023/07/31 09:01:10;;;;;;;2.03;1.93;;;23.20;46.80;;;;;;5025579;28;20475;-66
2023/07/31 09:03:37;;;;;;;1.80;1.70;;;23.20;46.80;;;;;;5012395;28;20464;-66
2023/07/31 09:06:04;;;;;;;1.63;1.53;;;23.20;46.70;;;;;;5019821;28;20470;-66
2023/07/31 09:08:31;;;;;;;2.33;1.60;;;23.20;46.80;;;;;;5018798;28;20452;-66
2023/07/31 09:11:01;;;;;;;1.93;1.83;;;23.20;46.80;;;;;;5034118;28;20462;-66
2023/07/31 09:13:29;;;;;;;1.60;1.50;;;23.20;46.80;;;;;;5029633;28;20470;-66
2023/07/31 09:15:54;;;;;;;1.47;1.37;;;23.20;46.70;;;;;;5032980;28;20551;-66
2023/07/31 09:18:22;;;;;;;1.40;1.30;;;23.20;46.80;;;;;;5029904;28;20488;-66
2023/07/31 09:21:01;;;;;;;2.83;1.83;;;23.20;46.80;;;;;;5035446;28;20590;-66
2023/07/31 09:23:43;;;;;;;1.93;1.83;;;23.20;46.70;;;;;;5036354;28;20877;-66
2023/07/31 09:26:09;;;;;;;1.40;1.30;;;23.20;46.80;;;;;;5039295;28;20526;-66
2023/07/31 09:28:34;;;;;;;1.70;1.60;;;23.20;47.70;;;;;;5022569;28;20488;-66
2023/07/31 09:31:00;;;;;;;1.50;1.40;;;23.20;46.90;;;;;;5011557;28;20235;-66
2023/07/31 09:33:25;;;;;;;1.50;1.40;;;23.20;46.80;;;;;;5026565;28;20285;-66
2023/07/31 09:35:51;;;;;;;1.90;1.80;;;23.20;46.90;;;;;;5017973;28;20285;-66
2023/07/31 09:38:17;;;;;;;1.70;1.60;;;23.20;46.90;;;;;;5015087;28;20226;-66
2023/07/31 09:40:46;;;;;;;2.70;2.07;;;23.20;46.80;;;;;;5026588;28;20226;-66
2023/07/31 09:43:19;;;;;;;1.83;1.73;;;23.20;46.70;;;;;;5033233;28;20237;-66
2023/07/31 09:45:45;;;;;;;1.60;1.50;;;23.20;46.80;;;;;;5039059;28;21332;-66
2023/07/31 09:48:16;;;;;;;1.60;1.50;;;23.20;46.90;;;;;;5016793;28;21093;-66
2023/07/31 09:50:43;;;;;;;2.77;1.90;;;23.20;46.80;;;;;;5029445;28;20443;-66
2023/07/31 09:53:09;;;;;;;2.00;1.53;;;23.20;46.80;;;;;;5035080;28;20466;-66
2023/07/31 09:55:36;;;;;;;1.30;1.20;;;23.20;46.80;;;;;;5037627;28;20463;-66
2023/07/31 09:58:08;;;;;;;1.53;1.43;;;23.20;46.80;;;;;;5022751;28;20306;-66
2023/07/31 10:00:35;;;;;;;1.50;1.40;;;23.20;46.80;;;;;;5013121;28;21142;-66
2023/07/31 10:03:04;;;;;;;1.43;1.33;;;23.20;46.80;;;;;;5018594;28;20467;-66
2023/07/31 10:05:50;;;;;;;1.73;1.63;;;23.20;46.90;;;;;;5012280;28;20471;-66
2023/07/31 10:08:19;;;;;;;1.67;1.50;;;23.20;46.80;;;;;;5026664;28;21212;-66
2023/07/31 10:10:46;;;;;;;1.40;1.30;;;23.20;46.80;;;;;;5011321;28;21007;-66
2023/07/31 10:13:13;;;;;;;1.43;1.33;;;23.20;46.80;;;;;;5018327;28;20463;-66
2023/07/31 10:15:41;;;;;;;1.37;1.27;;;23.20;46.80;;;;;;5029782;28;20467;-66
2023/07/31 10:18:07;;;;;;;1.67;1.57;;;23.20;46.90;;;;;;5026466;28;20479;-66
2023/07/31 10:20:33;;;;;;;1.50;1.40;;;23.20;47.00;;;;;;5024812;28;20467;-66
2023/07/31 10:22:59;;;;;;;1.90;1.80;;;23.20;47.00;;;;;;5026293;28;20780;-66
2023/07/31 10:25:27;;;;;;;2.60;1.20;;;23.20;47.90;;;;;;5026976;28;20486;-66
2023/07/31 10:27:53;;;;;;;1.80;1.60;;;23.20;47.10;;;;;;5016752;28;20464;-66
2023/07/31 10:30:22;;;;;;;1.43;1.30;;;23.20;47.10;;;;;;5028647;28;20468;-66
2023/07/31 10:32:49;;;;;;;1.60;1.50;;;23.20;47.00;;;;;;5020393;28;20486;-66
2023/07/31 10:35:17;;;;;;;10.90;2.17;;;23.20;47.80;;;;;;5025312;28;20514;-66
2023/07/31 10:37:43;;;;;;;2.13;1.40;;;23.20;46.90;;;;;;5027076;28;21228;-66
2023/07/31 10:40:26;;;;;;;1.63;1.40;;;23.20;46.90;;;;;;5022450;28;20471;-66
2023/07/31 10:42:57;;;;;;;1.63;1.53;;;23.20;47.00;;;;;;5022624;28;21238;-65
2023/07/31 10:45:28;;;;;;;1.77;1.67;;;23.20;47.10;;;;;;5014998;28;20460;-66
2023/07/31 10:48:01;;;;;;;2.17;1.60;;;23.20;47.20;;;;;;5022588;28;20568;-66
2023/07/31 10:50:29;;;;;;;1.40;1.30;;;23.10;47.40;;;;;;5025533;28;20463;-65
2023/07/31 10:52:56;;;;;;;1.50;1.40;;;23.10;47.40;;;;;;5025619;28;20488;-66
2023/07/31 10:55:39;;;;;;;1.30;1.20;;;23.10;47.40;;;;;;5025546;28;20468;-65
2023/07/31 10:58:10;;;;;;;1.70;1.60;;;23.10;47.40;;;;;;5029325;28;20471;-65
2023/07/31 11:00:41;;;;;;;1.40;1.30;;;23.10;47.40;;;;;;5027563;28;20493;-66
2023/07/31 11:03:12;;;;;;;1.50;1.40;;;23.10;47.40;;;;;;5027752;28;20498;-66
2023/07/31 11:06:01;;;;;;;1.63;1.53;;;23.10;47.40;;;;;;5032341;28;20545;-66
2023/07/31 11:08:31;;;;;;;1.70;1.60;;;23.10;47.40;;;;;;5026273;28;20547;-65
2023/07/31 11:11:03;;;;;;;1.67;1.57;;;23.10;47.40;;;;;;5029618;28;20467;-66
2023/07/31 11:13:40;;;;;;;1.73;1.63;;;23.10;47.40;;;;;;5018369;28;20476;-66
2023/07/31 11:16:05;;;;;;;1.40;1.30;;;23.10;47.40;;;;;;5025779;28;21004;-66
2023/07/31 11:18:31;;;;;;;1.37;1.27;;;23.10;47.40;;;;;;5025942;28;20464;-66
2023/07/31 11:20:57;;;;;;;1.50;1.40;;;23.10;47.40;;;;;;5025777;28;20222;-66
2023/07/31 11:23:23;;;;;;;1.60;1.50;;;23.10;47.40;;;;;;5024072;28;20341;-66
2023/07/31 11:25:49;;;;;;;1.50;1.40;;;23.10;47.40;;;;;;5010934;28;20985;-66
2023/07/31 11:28:16;;;;;;;1.53;1.43;;;23.10;47.40;;;;;;5021818;28;20541;-66
2023/07/31 11:30:43;;;;;;;1.50;1.40;;;23.10;47.40;;;;;;5019541;28;20451;-66
2023/07/31 11:33:11;;;;;;;1.70;1.60;;;23.10;47.40;;;;;;5025072;28;20476;-66
2023/07/31 11:35:44;;;;;;;1.33;1.23;;;23.10;47.40;;;;;;5018191;28;20464;-66
2023/07/31 11:38:11;;;;;;;1.57;1.30;;;23.10;47.40;;;;;;5014236;28;20555;-66
2023/07/31 11:40:43;;;;;;;1.57;1.47;;;23.10;47.40;;;;;;5016575;28;21737;-66
2023/07/31 11:43:09;;;;;;;1.40;1.30;;;23.10;47.40;;;;;;5024769;28;21255;-66
2023/07/31 11:45:35;;;;;;;1.20;1.10;;;23.20;47.50;;;;;;5024430;28;20557;-66
2023/07/31 11:48:01;;;;;;;1.60;1.30;;;23.10;47.40;;;;;;5021641;28;20461;-66
2023/07/31 11:50:27;;;;;;;1.37;1.27;;;23.10;48.10;;;;;;5023656;28;20862;-66
2023/07/31 11:53:07;;;;;;;1.50;1.20;;;23.10;47.40;;;;;;5016275;28;20463;-66
2023/07/31 11:55:33;;;;;;;2.53;1.30;;;23.10;47.40;;;;;;5024345;28;20238;-66
2023/07/31 11:57:59;;;;;;;1.20;1.10;;;23.10;47.40;;;;;;5026478;28;20455;-66
2023/07/31 12:00:25;;;;;;;1.67;1.40;;;23.10;47.40;;;;;;5012186;28;20232;-66
2023/07/31 12:02:51;;;;;;;1.40;1.27;;;23.10;47.40;;;;;;5028776;28;20291;-66
2023/07/31 12:05:17;;;;;;;1.30;1.20;;;23.10;47.40;;;;;;5030480;28;20935;-65
2023/07/31 12:07:51;;;;;;;1.50;1.40;;;23.10;47.30;;;;;;5030732;28;20642;-66
2023/07/31 12:10:27;;;;;;;2.03;1.40;;;23.10;48.10;;;;;;5017774;28;20280;-66
2023/07/31 12:12:58;;;;;;;1.20;1.10;;;23.20;47.40;;;;;;5018463;28;20494;-66
2023/07/31 12:15:31;;;;;;;1.20;1.10;;;23.10;47.40;;;;;;5027420;28;21038;-66
2023/07/31 12:17:56;;;;;;;1.27;1.17;;;23.20;47.50;;;;;;5028325;28;20537;-66
2023/07/31 12:20:22;;;;;;;1.57;1.47;;;23.10;47.40;;;;;;5028232;28;21192;-66
2023/07/31 12:22:47;;;;;;;1.10;1.00;;;23.10;47.30;;;;;;5030158;28;20230;-65
2023/07/31 12:25:15;;;;;;;1.30;1.20;;;23.10;47.40;;;;;;5022637;28;20311;-66
2023/07/31 12:27:44;;;;;;;1.37;1.07;;;23.10;47.40;;;;;;5024730;28;27761;-65
2023/07/31 12:30:31;;;;;;;1.27;1.10;;;23.10;47.40;;;;;;5009632;28;20499;-65
2023/07/31 12:32:57;;;;;;;1.20;1.10;;;23.10;47.40;;;;;;5013292;28;20471;-66
2023/07/31 12:35:23;;;;;;;1.30;1.20;;;23.10;47.40;;;;;;5028430;28;20480;-66
2023/07/31 12:37:48;;;;;;;1.30;1.20;;;23.10;47.40;;;;;;5030747;28;20303;-65
2023/07/31 12:40:14;;;;;;;1.13;1.03;;;23.10;47.40;;;;;;5019664;28;20570;-66
2023/07/31 12:42:41;;;;;;;1.10;1.00;;;23.10;47.40;;;;;;5030118;28;20250;-66
2023/07/31 12:45:07;;;;;;;1.20;1.10;;;23.10;47.40;;;;;;5026076;28;20226;-65